Time;durP1;ratioP1;P1;durP2;ratioP2;P2;SDS_P1;SDS_P2;PMS_P1;PMS_P2;Temp;Humidity;BMP_temperature;BMP_pressure;BME280_temperature;BME280_humidity;BME280_pressure;Samples;Min_cycle;Max_cycle;Signal;HPM_P1;HPM_P2
2023/06/03 00:01:03;;;;;;;13.75;1.95;;;;;;;13.08;77.27;101973.16;7355547;19;20026;-65
2023/06/03 00:03:32;;;;;;;14.85;2.30;;;;;;;13.06;77.59;101981.22;7355213;19;20018;-65
2023/06/03 00:06:00;;;;;;;15.55;2.33;;;;;;;13.13;77.30;101973.59;7358121;19;20023;-65
2023/06/03 00:08:27;;;;;;;13.50;2.15;;;;;;;13.11;77.38;101986.94;7356224;19;20364;-66
2023/06/03 00:10:54;;;;;;;14.48;1.92;;;;;;;13.08;77.42;101978.44;7356491;19;20046;-64
2023/06/03 00:13:22;;;;;;;13.63;1.75;;;;;;;12.97;77.65;101982.06;7356146;19;20510;-66
2023/06/03 00:15:49;;;;;;;18.95;2.00;;;;;;;13.00;77.89;101976.53;7357360;19;20027;-65
2023/06/03 00:18:16;;;;;;;12.68;1.77;;;;;;;12.98;78.24;101974.97;7354706;19;20032;-66
2023/06/03 00:20:47;;;;;;;11.88;2.40;;;;;;;12.99;78.53;101974.84;7358997;19;20019;-66
2023/06/03 00:23:15;;;;;;;15.95;2.03;;;;;;;13.05;78.12;101965.53;7356014;19;21025;-66
2023/06/03 00:25:43;;;;;;;17.80;2.30;;;;;;;13.07;77.88;101969.69;7357113;19;20022;-65
2023/06/03 00:28:10;;;;;;;13.50;2.22;;;;;;;13.06;78.14;101970.66;7355851;19;20030;-65
2023/06/03 00:30:37;;;;;;;14.13;2.22;;;;;;;12.97;78.28;101965.38;7354805;19;20018;-65
2023/06/03 00:33:05;;;;;;;19.17;2.28;;;;;;;12.94;78.74;101969.16;7354348;19;20696;-65
2023/06/03 00:35:33;;;;;;;15.85;2.38;;;;;;;12.90;78.72;101974.84;7356382;19;20019;-66
2023/06/03 00:38:02;;;;;;;17.50;2.20;;;;;;;12.92;79.52;101965.81;7353142;19;20014;-65
2023/06/03 00:40:29;;;;;;;13.32;2.67;;;;;;;12.90;79.15;101974.84;7357573;19;20038;-65
2023/06/03 00:42:59;;;;;;;13.23;2.08;;;;;;;12.93;79.84;101971.91;7356914;19;20018;-65
2023/06/03 00:45:26;;;;;;;16.17;2.40;;;;;;;12.90;79.75;101964.28;7350291;19;20014;-65
2023/06/03 00:47:53;;;;;;;11.95;1.98;;;;;;;12.91;79.56;101968.56;7351359;19;20019;-66
2023/06/03 00:50:20;;;;;;;11.85;2.15;;;;;;;12.76;79.81;101966.34;7356165;19;20498;-65
2023/06/03 00:52:50;;;;;;;17.70;3.22;;;;;;;12.74;80.15;101963.03;7356113;19;20023;-66
2023/06/03 00:55:17;;;;;;;13.25;3.20;;;;;;;12.70;79.69;101968.72;7355693;19;20386;-65
2023/06/03 00:57:45;;;;;;;15.27;2.25;;;;;;;12.60;80.40;101970.50;7355255;19;20819;-65
2023/06/03 01:00:12;;;;;;;14.05;2.58;;;;;;;12.54;80.47;101961.34;7354984;19;20054;-65
2023/06/03 01:02:43;;;;;;;12.05;2.25;;;;;;;12.57;80.44;101971.63;7352235;19;20018;-65
2023/06/03 01:05:13;;;;;;;15.60;2.40;;;;;;;12.57;80.35;101963.72;7352453;19;20099;-65
2023/06/03 01:08:00;;;;;;;14.60;2.17;;;;;;;12.60;80.32;101970.50;7354495;19;20021;-65
2023/06/03 01:10:46;;;;;;;15.10;1.75;;;;;;;12.59;80.13;101964.41;7355626;19;20007;-65
2023/06/03 01:13:32;;;;;;;11.50;2.45;;;;;;;12.60;80.11;101960.78;7361476;19;20038;-65
2023/06/03 01:16:04;;;;;;;13.43;2.20;;;;;;;12.61;81.53;101957.19;7358347;19;20034;-64
2023/06/03 01:18:35;;;;;;;15.63;2.17;;;;;;;12.63;80.64;101967.59;7358198;19;20376;-65
2023/06/03 01:21:03;;;;;;;15.88;2.75;;;;;;;12.64;80.24;101967.47;7362648;19;20442;-66
2023/06/03 01:23:34;;;;;;;13.90;1.75;;;;;;;12.64;80.83;101971.94;7359501;19;20616;-67
2023/06/03 01:26:05;;;;;;;14.02;2.28;;;;;;;12.63;80.13;101973.72;7362159;19;20118;-66
2023/06/03 01:28:33;;;;;;;14.90;1.98;;;;;;;12.64;80.23;101970.13;7359083;19;20022;-66
2023/06/03 01:31:02;;;;;;;11.05;1.77;;;;;;;12.66;81.37;101968.16;7356878;19;20433;-66
2023/06/03 01:33:32;;;;;;;13.85;2.97;;;;;;;12.70;80.06;101971.34;7360369;19;20755;-65
2023/06/03 01:36:02;;;;;;;11.98;1.58;;;;;;;12.67;80.15;101967.19;7362208;19;20006;-65
2023/06/03 01:38:29;;;;;;;22.40;2.17;;;;;;;12.65;80.19;101966.47;7359034;19;20138;-66
2023/06/03 01:40:57;;;;;;;11.05;2.17;;;;;;;12.62;80.23;101974.69;7361512;19;20605;-65
2023/06/03 01:43:24;;;;;;;15.70;4.03;;;;;;;12.60;80.17;101959.94;7360933;19;20022;-66
2023/06/03 01:45:52;;;;;;;14.48;3.00;;;;;;;12.57;80.38;101958.44;7360059;19;20015;-65
2023/06/03 01:48:23;;;;;;;12.20;2.08;;;;;;;12.57;80.35;101947.03;7357795;19;20006;-66
2023/06/03 01:50:50;;;;;;;12.07;2.22;;;;;;;12.52;80.76;101946.63;7357104;19;20158;-65
2023/06/03 01:53:17;;;;;;;14.05;2.00;;;;;;;12.51;80.92;101942.28;7360924;19;20015;-65
2023/06/03 01:55:46;;;;;;;19.83;3.53;;;;;;;12.46;80.65;101941.88;7360039;19;20024;-66
2023/06/03 01:58:13;;;;;;;10.55;2.47;;;;;;;12.44;80.88;101942.03;7360168;19;20002;-64
2023/06/03 02:00:41;;;;;;;9.60;1.92;;;;;;;12.41;81.06;101945.75;7360174;19;20015;-66
2023/06/03 02:03:08;;;;;;;10.30;2.30;;;;;;;12.34;81.85;101942.00;7360515;19;20014;-65
2023/06/03 02:05:36;;;;;;;13.68;2.33;;;;;;;12.34;82.57;101949.09;7360842;19;20614;-64
2023/06/03 02:08:03;;;;;;;15.25;1.98;;;;;;;12.36;81.84;101944.50;7359860;19;20018;-66
2023/06/03 02:10:30;;;;;;;9.60;1.85;;;;;;;12.33;81.33;101943.00;7363359;19;20129;-66
2023/06/03 02:12:58;;;;;;;7.53;1.60;;;;;;;12.35;81.62;101937.56;7360983;19;20022;-66
2023/06/03 02:15:25;;;;;;;16.38;2.03;;;;;;;12.30;81.17;101939.75;7358206;19;20036;-66
2023/06/03 02:17:55;;;;;;;12.23;2.83;;;;;;;12.28;82.23;101947.84;7357968;19;20018;-66
2023/06/03 02:20:22;;;;;;;14.63;2.55;;;;;;;12.27;83.07;101942.69;7359691;19;20017;-65
2023/06/03 02:22:50;;;;;;;16.05;2.45;;;;;;;12.24;82.83;101935.88;7359390;19;20340;-66
2023/06/03 02:25:18;;;;;;;17.95;2.33;;;;;;;12.24;81.83;101930.59;7359418;19;20015;-65
2023/06/03 02:27:45;;;;;;;11.70;1.55;;;;;;;12.28;82.29;101926.72;7361263;19;20038;-65
2023/06/03 02:30:13;;;;;;;20.67;2.45;;;;;;;12.27;82.56;101929.50;7360191;19;20302;-65
2023/06/03 02:32:41;;;;;;;12.85;2.30;;;;;;;12.27;82.07;101927.69;7357502;19;21866;-65
2023/06/03 02:35:09;;;;;;;19.05;1.90;;;;;;;12.25;81.86;101916.44;7358632;19;20019;-64
2023/06/03 02:37:36;;;;;;;14.85;2.10;;;;;;;12.22;82.00;101923.78;7353544;19;20037;-64
2023/06/03 02:40:05;;;;;;;13.05;2.00;;;;;;;12.18;82.06;101917.97;7359131;19;20033;-66
2023/06/03 02:42:32;;;;;;;19.88;2.20;;;;;;;12.18;81.91;101917.13;7358633;19;20149;-66
2023/06/03 02:45:00;;;;;;;12.95;2.20;;;;;;;12.19;83.28;101916.16;7359934;19;20025;-65
2023/06/03 02:47:27;;;;;;;15.80;2.50;;;;;;;12.14;82.67;101924.47;7347551;19;20018;-65
2023/06/03 02:49:56;;;;;;;15.50;2.10;;;;;;;12.11;82.89;101910.72;7359817;19;20217;-65
2023/06/03 02:52:23;;;;;;;18.75;2.67;;;;;;;12.07;83.15;101925.16;7357886;19;20006;-65
2023/06/03 02:54:50;;;;;;;13.98;2.53;;;;;;;12.07;83.23;101915.44;7359304;19;20049;-64
2023/06/03 02:57:19;;;;;;;14.82;1.92;;;;;;;12.07;82.41;101915.44;7357601;19;20014;-66
2023/06/03 02:59:47;;;;;;;13.10;1.90;;;;;;;12.05;82.99;101913.88;7359707;19;20025;-65
2023/06/03 03:02:17;;;;;;;8.98;2.13;;;;;;;12.01;83.65;101913.34;7359472;19;20006;-64
2023/06/03 03:04:44;;;;;;;15.85;2.35;;;;;;;12.02;83.76;101909.72;7357638;19;20005;-64
2023/06/03 03:07:11;;;;;;;12.25;3.35;;;;;;;12.06;83.15;101903.22;7360347;19;20130;-66
2023/06/03 03:09:39;;;;;;;16.73;2.83;;;;;;;12.07;83.45;101912.78;7358485;19;20470;-65
2023/06/03 03:12:07;;;;;;;11.45;2.38;;;;;;;12.02;82.84;101909.72;7360051;19;20765;-65
2023/06/03 03:14:35;;;;;;;14.50;2.08;;;;;;;12.04;82.97;101904.31;7358694;19;20038;-65
2023/06/03 03:17:02;;;;;;;14.48;2.42;;;;;;;11.99;82.63;101902.06;7354318;19;20031;-65
2023/06/03 03:19:30;;;;;;;12.60;2.42;;;;;;;11.96;82.96;101902.34;7356981;19;20819;-65
2023/06/03 03:21:57;;;;;;;12.57;2.00;;;;;;;11.94;83.73;101897.19;7359202;19;20025;-65
2023/06/03 03:24:24;;;;;;;12.73;1.88;;;;;;;11.96;84.38;101899.72;7356632;19;20011;-65
2023/06/03 03:26:52;;;;;;;13.85;2.20;;;;;;;11.96;83.57;101903.19;7358094;19;20037;-66
2023/06/03 03:29:23;;;;;;;20.63;3.58;;;;;;;11.95;84.00;101905.94;7356072;19;20748;-66
2023/06/03 03:31:57;;;;;;;14.75;2.55;;;;;;;11.98;83.93;101897.78;7351796;19;20021;-65
2023/06/03 03:34:24;;;;;;;15.00;2.67;;;;;;;12.00;83.80;101898.47;7357271;19;20960;-66
2023/06/03 03:36:52;;;;;;;11.57;2.10;;;;;;;12.02;83.42;101899.19;7358720;19;20042;-65
2023/06/03 03:39:19;;;;;;;9.13;2.10;;;;;;;12.00;83.63;101901.09;7357141;19;20078;-66
2023/06/03 03:41:47;;;;;;;12.57;2.58;;;;;;;11.88;84.21;101908.31;7359027;19;20018;-65
2023/06/03 03:44:14;;;;;;;10.45;1.88;;;;;;;11.87;84.60;101900.53;7358437;19;21642;-65
2023/06/03 03:46:57;;;;;;;15.20;2.50;;;;;;;11.87;84.57;101903.16;7349378;19;20018;-66
2023/06/03 03:49:30;;;;;;;17.38;2.50;;;;;;;11.84;84.98;101906.88;7357456;19;20014;-66
2023/06/03 03:52:04;;;;;;;15.93;2.35;;;;;;;11.86;85.02;101904.13;7355514;19;20017;-65
2023/06/03 03:54:35;;;;;;;10.02;2.35;;;;;;;11.86;84.83;101907.59;7358196;19;20522;-64
2023/06/03 03:57:10;;;;;;;16.63;3.28;;;;;;;11.85;85.21;101903.28;7356412;19;20018;-64
2023/06/03 03:59:38;;;;;;;14.60;2.75;;;;;;;11.81;85.36;101898.41;7357333;19;20022;-64
2023/06/03 04:02:05;;;;;;;12.98;3.10;;;;;;;11.76;85.90;101901.47;7354272;19;20680;-71
2023/06/03 04:04:42;;;;;;;14.27;3.22;;;;;;;11.78;86.03;101901.34;7357111;19;20015;-65
2023/06/03 04:07:14;;;;;;;17.00;3.58;;;;;;;11.82;86.68;101903.56;7357454;19;20977;-65
2023/06/03 04:09:43;;;;;;;13.13;2.67;;;;;;;11.82;86.37;101897.47;7358352;19;20680;-66
2023/06/03 04:12:18;;;;;;;14.13;2.92;;;;;;;11.82;85.71;101895.66;7356993;19;20018;-66
2023/06/03 04:14:50;;;;;;;14.85;3.20;;;;;;;11.80;85.68;101905.50;7357698;19;20010;-66
2023/06/03 04:17:21;;;;;;;14.90;3.70;;;;;;;11.79;86.00;101897.72;7354354;19;20790;-66
2023/06/03 04:19:48;;;;;;;15.18;3.35;;;;;;;11.80;86.37;101900.22;7356218;19;20011;-66
2023/06/03 04:22:21;;;;;;;14.75;2.75;;;;;;;11.82;86.44;101908.84;7357318;19;20018;-65
2023/06/03 04:24:56;;;;;;;15.82;3.08;;;;;;;11.85;86.02;101905.09;7358851;19;20022;-65
2023/06/03 04:27:24;;;;;;;21.15;4.05;;;;;;;11.84;85.32;101901.63;7358591;19;20018;-66
2023/06/03 04:29:52;;;;;;;17.52;4.35;;;;;;;11.70;86.24;101906.41;7356238;19;20018;-65
2023/06/03 04:32:19;;;;;;;15.32;4.22;;;;;;;11.68;86.30;101901.28;7353315;19;20589;-65
2023/06/03 04:34:50;;;;;;;15.52;5.32;;;;;;;11.61;87.00;101901.94;7356659;19;20010;-65
2023/06/03 04:37:18;;;;;;;17.35;5.15;;;;;;;11.57;87.22;101915.38;7358588;19;20029;-65
2023/06/03 04:39:45;;;;;;;16.30;4.10;;;;;;;11.63;88.06;101905.28;7358343;19;21393;-65
2023/06/03 04:42:15;;;;;;;14.55;4.10;;;;;;;11.64;87.78;101914.84;7356309;19;20014;-65
2023/06/03 04:44:43;;;;;;;15.07;4.78;;;;;;;11.64;87.67;101910.41;7358189;19;20015;-66
2023/06/03 04:47:11;;;;;;;13.55;4.47;;;;;;;11.66;87.36;101905.00;7355559;19;20025;-66
2023/06/03 04:49:39;;;;;;;19.80;4.93;;;;;;;11.66;87.57;101908.47;7364347;19;20636;-67
2023/06/03 04:52:11;;;;;;;16.92;5.35;;;;;;;11.66;87.53;101907.63;7361819;19;20014;-65
2023/06/03 04:54:40;;;;;;;17.38;5.30;;;;;;;11.67;87.68;101909.31;7363671;19;20018;-64
2023/06/03 04:57:07;;;;;;;16.42;5.82;;;;;;;11.69;87.93;101902.91;7363729;19;20716;-66
2023/06/03 04:59:35;;;;;;;18.80;5.93;;;;;;;11.73;88.43;101911.44;7362962;19;20010;-65
2023/06/03 05:02:02;;;;;;;18.05;5.60;;;;;;;11.77;88.20;101916.31;7358054;19;20026;-64
2023/06/03 05:04:34;;;;;;;18.20;5.22;;;;;;;11.78;88.23;101920.63;7364471;19;20037;-65
2023/06/03 05:07:01;;;;;;;19.55;5.10;;;;;;;11.81;87.65;101923.00;7362843;19;20090;-65
2023/06/03 05:09:29;;;;;;;16.00;4.82;;;;;;;11.86;86.65;101923.44;7363907;19;20019;-65
2023/06/03 05:11:57;;;;;;;17.20;5.10;;;;;;;11.78;87.26;101925.06;7362893;19;20014;-65
2023/06/03 05:14:25;;;;;;;18.45;4.53;;;;;;;11.80;87.36;101925.75;7360018;19;20025;-65
2023/06/03 05:16:52;;;;;;;18.58;6.20;;;;;;;11.77;88.20;101923.41;7360129;19;20106;-64
2023/06/03 05:19:20;;;;;;;18.23;5.72;;;;;;;11.73;88.61;101928.09;7361855;19;20487;-65
2023/06/03 05:21:47;;;;;;;20.00;6.82;;;;;;;11.75;88.61;101941.13;7362553;19;20011;-64
2023/06/03 05:24:14;;;;;;;19.60;6.85;;;;;;;11.77;88.76;101928.66;7363682;19;20019;-65
2023/06/03 05:26:41;;;;;;;17.88;7.07;;;;;;;11.75;88.71;101943.78;7363496;19;20359;-65
2023/06/03 05:29:09;;;;;;;16.52;5.60;;;;;;;11.73;88.39;101922.00;7362792;19;20011;-65
2023/06/03 05:31:36;;;;;;;17.13;6.20;;;;;;;11.78;88.43;101928.53;7361893;19;20014;-66
2023/06/03 05:34:03;;;;;;;16.52;5.63;;;;;;;11.80;88.48;101929.22;7362107;19;20053;-65
2023/06/03 05:36:31;;;;;;;14.48;5.47;;;;;;;11.79;88.52;101932.81;7364999;19;20021;-66
2023/06/03 05:38:58;;;;;;;18.65;5.45;;;;;;;11.73;88.59;101929.91;7364407;19;20021;-66
2023/06/03 05:41:25;;;;;;;15.30;6.05;;;;;;;11.71;88.99;101926.53;7360616;19;20023;-66
2023/06/03 05:43:53;;;;;;;14.40;5.22;;;;;;;11.75;88.97;101920.03;7361069;19;20014;-65
2023/06/03 05:46:20;;;;;;;14.95;5.05;;;;;;;11.81;88.77;101925.63;7359883;19;20018;-68
2023/06/03 05:48:48;;;;;;;13.10;4.82;;;;;;;11.88;88.12;101925.94;7361021;19;20022;-66
2023/06/03 05:51:15;;;;;;;15.18;4.32;;;;;;;11.91;88.48;101926.50;7362050;19;20359;-64
2023/06/03 05:53:43;;;;;;;17.20;4.68;;;;;;;11.92;87.89;101930.81;7361337;19;21775;-65
2023/06/03 05:56:11;;;;;;;16.83;4.78;;;;;;;11.96;87.95;101926.09;7359690;19;20019;-65
2023/06/03 05:58:38;;;;;;;20.42;4.70;;;;;;;11.90;88.08;101935.38;7359686;19;20024;-65
2023/06/03 06:01:06;;;;;;;11.88;4.05;;;;;;;11.91;88.38;101931.78;7361026;19;20025;-65
2023/06/03 06:03:33;;;;;;;16.23;4.75;;;;;;;11.91;88.26;101936.22;7360745;19;20500;-65
2023/06/03 06:06:01;;;;;;;13.95;4.60;;;;;;;11.90;88.37;101934.53;7362287;19;20549;-66
2023/06/03 06:08:29;;;;;;;18.83;6.82;;;;;;;11.95;87.78;101935.81;7358178;19;20006;-65
2023/06/03 06:10:56;;;;;;;16.70;5.70;;;;;;;11.94;88.21;101944.69;7361827;19;21056;-68
2023/06/03 06:13:23;;;;;;;14.85;5.35;;;;;;;11.94;88.34;101926.22;7358101;19;20467;-66
2023/06/03 06:16:01;;;;;;;14.05;4.75;;;;;;;11.85;88.86;101932.31;7359987;19;20040;-65
2023/06/03 06:18:29;;;;;;;18.50;5.57;;;;;;;11.88;89.11;101926.78;7359643;19;20010;-66
2023/06/03 06:20:57;;;;;;;18.55;6.10;;;;;;;11.88;89.35;101928.56;7361678;19;20379;-65
2023/06/03 06:23:25;;;;;;;15.52;5.43;;;;;;;11.92;89.55;101920.25;7360563;19;20077;-65
2023/06/03 06:25:55;;;;;;;16.75;6.13;;;;;;;11.97;89.54;101925.97;7358396;19;20041;-65
2023/06/03 06:28:26;;;;;;;15.63;5.57;;;;;;;12.08;90.16;101925.03;7359752;19;20015;-65
2023/06/03 06:30:55;;;;;;;14.13;4.82;;;;;;;12.14;88.62;101923.66;7358888;19;20018;-65
2023/06/03 06:33:23;;;;;;;13.85;4.35;;;;;;;12.15;88.43;101923.50;7357095;19;20922;-67
2023/06/03 06:35:50;;;;;;;14.93;5.47;;;;;;;12.16;88.63;101932.25;7360459;19;20011;-65
2023/06/03 06:38:18;;;;;;;14.52;4.85;;;;;;;12.17;88.99;101929.47;7360181;19;20015;-66
2023/06/03 06:40:45;;;;;;;15.57;5.38;;;;;;;12.23;88.78;101928.09;7360878;19;20090;-65
2023/06/03 06:43:16;;;;;;;17.65;4.90;;;;;;;12.26;88.70;101922.53;7361592;19;20018;-65
2023/06/03 06:45:43;;;;;;;19.13;6.72;;;;;;;12.34;89.04;101925.34;7359683;19;20022;-66
2023/06/03 06:48:12;;;;;;;16.30;5.60;;;;;;;12.36;89.04;101921.59;7356338;19;20018;-65
2023/06/03 06:50:50;;;;;;;17.58;5.25;;;;;;;12.51;89.02;101934.38;7361343;19;20142;-65
2023/06/03 06:53:20;;;;;;;16.48;5.32;;;;;;;12.55;88.31;101935.75;7359885;19;20018;-66
2023/06/03 06:55:56;;;;;;;16.70;5.60;;;;;;;12.68;87.45;101931.06;7360538;19;20087;-66
2023/06/03 06:58:26;;;;;;;21.10;5.43;;;;;;;12.68;86.86;101937.19;7359343;19;20471;-66
2023/06/03 07:00:53;;;;;;;15.95;4.93;;;;;;;12.63;86.85;101935.94;7359072;19;20585;-65
2023/06/03 07:03:22;;;;;;;20.42;5.03;;;;;;;12.54;87.50;101929.69;7359781;19;20730;-66
2023/06/03 07:05:53;;;;;;;13.38;4.95;;;;;;;12.54;87.66;101931.47;7361722;19;20121;-64
2023/06/03 07:08:22;;;;;;;15.32;4.63;;;;;;;12.55;87.80;101931.31;7358151;19;20019;-66
2023/06/03 07:10:50;;;;;;;17.02;5.10;;;;;;;12.62;87.91;101934.25;7360214;19;20502;-65
2023/06/03 07:13:18;;;;;;;17.08;5.43;;;;;;;12.68;88.16;101936.34;7359529;19;20018;-65
2023/06/03 07:15:45;;;;;;;17.23;5.93;;;;;;;12.75;87.91;101934.78;7359469;19;20021;-65
2023/06/03 07:18:13;;;;;;;16.65;5.28;;;;;;;12.83;86.87;101933.16;7357724;19;20789;-64
2023/06/03 07:20:43;;;;;;;16.08;5.35;;;;;;;12.83;86.86;101933.16;7361144;19;20020;-65
2023/06/03 07:23:13;;;;;;;15.88;5.72;;;;;;;12.91;86.81;101934.22;7360098;19;20022;-65
2023/06/03 07:25:43;;;;;;;21.23;6.53;;;;;;;12.97;87.63;101937.16;7361326;19;20039;-66
2023/06/03 07:28:12;;;;;;;18.58;6.43;;;;;;;13.01;86.73;101938.53;7360412;19;20753;-65
2023/06/03 07:30:41;;;;;;;19.55;5.68;;;;;;;13.02;86.24;101936.72;7358785;19;21887;-66
2023/06/03 07:33:11;;;;;;;14.80;6.00;;;;;;;13.02;86.95;101939.38;7356522;19;20015;-66
2023/06/03 07:35:39;;;;;;;16.58;4.93;;;;;;;13.07;86.51;101943.25;7359502;19;21036;-67
2023/06/03 07:38:06;;;;;;;15.02;5.32;;;;;;;13.09;86.21;101946.59;7356681;19;20022;-66
2023/06/03 07:40:43;;;;;;;14.82;5.00;;;;;;;13.07;86.24;101943.25;7357388;19;20583;-67
2023/06/03 07:43:11;;;;;;;20.58;5.90;;;;;;;13.11;86.20;101947.31;7359323;19;20022;-66
2023/06/03 07:45:39;;;;;;;20.27;6.20;;;;;;;13.18;86.08;101956.34;7355101;19;20124;-67
2023/06/03 07:48:13;;;;;;;21.85;5.28;;;;;;;13.19;86.05;101963.31;7354905;19;20324;-65
2023/06/03 07:50:40;;;;;;;16.15;5.97;;;;;;;13.20;85.32;101964.16;7360186;19;20035;-64
2023/06/03 07:53:08;;;;;;;18.00;5.40;;;;;;;13.17;85.97;101954.69;7359156;19;20033;-65
2023/06/03 07:55:38;;;;;;;17.42;5.40;;;;;;;13.18;85.93;101958.16;7356142;19;20045;-67
2023/06/03 07:58:09;;;;;;;22.40;6.75;;;;;;;13.18;85.89;101964.28;7358720;19;20122;-65
2023/06/03 08:00:42;;;;;;;17.42;6.28;;;;;;;13.20;86.10;101966.78;7353675;19;20042;-65
2023/06/03 08:03:14;;;;;;;;;;;;;;;13.27;85.44;101967.88;7361826;19;20022;-65
2023/06/03 08:05:42;;;;;;;16.15;7.03;;;;;;;13.30;85.65;101966.78;7362013;19;19954;-64
2023/06/03 08:08:12;;;;;;;20.60;6.43;;;;;;;13.31;85.51;101969.25;7357966;19;20837;-66
2023/06/03 08:10:45;;;;;;;18.98;6.03;;;;;;;13.35;85.54;101969.81;7359375;19;20018;-66
2023/06/03 08:13:13;;;;;;;15.35;5.28;;;;;;;13.35;85.42;101969.81;7357332;19;20098;-65
2023/06/03 08:15:40;;;;;;;15.48;4.93;;;;;;;13.35;85.23;101975.09;7357760;19;20046;-66
2023/06/03 08:18:09;;;;;;;14.43;5.05;;;;;;;13.37;85.33;101963.41;7355143;19;20022;-66
2023/06/03 08:20:37;;;;;;;17.02;5.13;;;;;;;13.47;85.47;101968.66;7359524;19;20015;-65
2023/06/03 08:23:06;;;;;;;16.80;6.75;;;;;;;13.50;84.99;101969.22;7364330;19;20037;-65
2023/06/03 08:25:33;;;;;;;18.42;5.40;;;;;;;13.56;84.77;101967.81;7366918;19;20711;-66
2023/06/03 08:28:00;;;;;;;14.55;5.60;;;;;;;13.61;84.75;101971.69;7364469;19;20020;-65
2023/06/03 08:30:28;;;;;;;11.80;5.18;;;;;;;13.66;84.11;101971.28;7362149;19;20055;-65
2023/06/03 08:32:56;;;;;;;11.35;4.70;;;;;;;13.70;84.35;101964.72;7363127;19;20042;-67
2023/06/03 08:35:23;;;;;;;19.50;7.25;;;;;;;13.80;84.18;101976.09;7364309;19;20022;-65
2023/06/03 08:37:51;;;;;;;17.27;5.38;;;;;;;13.86;83.58;101969.38;7364248;19;20027;-64
2023/06/03 08:40:21;;;;;;;20.88;5.60;;;;;;;13.95;83.20;101966.69;7369959;19;20416;-65
2023/06/03 08:42:51;;;;;;;14.88;4.80;;;;;;;14.06;82.63;101961.22;7362499;19;20010;-65
2023/06/03 08:45:20;;;;;;;15.50;4.90;;;;;;;14.20;82.03;101954.56;7362717;19;20728;-65
2023/06/03 08:47:57;;;;;;;19.65;5.20;;;;;;;14.29;81.46;101956.31;7361419;19;20014;-66
2023/06/03 08:50:27;;;;;;;21.10;5.55;;;;;;;14.36;80.82;101952.16;7362899;19;20015;-65
2023/06/03 08:52:55;;;;;;;14.40;4.78;;;;;;;14.35;80.99;101957.53;7364068;19;20027;-65
2023/06/03 08:55:23;;;;;;;16.60;5.38;;;;;;;14.39;80.86;101959.78;7361099;19;20330;-66
2023/06/03 08:57:56;;;;;;;10.98;4.43;;;;;;;14.40;80.60;101963.25;7361935;19;20018;-66
2023/06/03 09:00:26;;;;;;;14.35;4.68;;;;;;;14.37;80.34;101953.81;7357866;19;20034;-67
2023/06/03 09:02:54;;;;;;;12.95;5.10;;;;;;;14.38;80.61;101965.22;7361857;19;20076;-66
2023/06/03 09:05:25;;;;;;;13.68;4.68;;;;;;;14.40;80.47;101957.97;7361341;19;20252;-67
2023/06/03 09:07:54;;;;;;;16.10;4.28;;;;;;;14.43;80.69;101961.13;7361455;19;20022;-65
2023/06/03 09:10:22;;;;;;;15.73;4.28;;;;;;;14.49;80.75;101952.59;7359967;19;20051;-65
2023/06/03 09:12:50;;;;;;;13.73;4.68;;;;;;;14.62;79.62;101960.19;7360705;19;20017;-65
2023/06/03 09:15:18;;;;;;;14.50;5.40;;;;;;;14.70;79.43;101948.81;7359701;19;20014;-65
2023/06/03 09:17:45;;;;;;;8.48;4.10;;;;;;;14.87;79.37;101955.94;7358767;19;20014;-66
2023/06/03 09:20:13;;;;;;;9.82;4.30;;;;;;;15.01;79.26;101963.34;7359893;19;20857;-65
2023/06/03 09:22:46;;;;;;;15.23;4.70;;;;;;;15.16;77.64;101964.44;7360252;19;20017;-65
2023/06/03 09:25:14;;;;;;;11.57;3.67;;;;;;;15.28;76.46;101970.34;7356235;19;20741;-65
2023/06/03 09:27:41;;;;;;;10.93;3.20;;;;;;;15.33;76.45;101968.06;7360617;19;20028;-65
2023/06/03 09:30:10;;;;;;;12.50;4.22;;;;;;;15.35;76.78;101960.75;7359013;19;20024;-65
2023/06/03 09:32:38;;;;;;;14.18;3.53;;;;;;;15.45;75.88;101960.66;7354021;19;20019;-65
2023/06/03 09:35:06;;;;;;;14.15;3.55;;;;;;;15.51;75.52;101960.91;7361617;19;20652;-66
2023/06/03 09:37:34;;;;;;;10.93;4.38;;;;;;;15.42;76.38;101961.81;7360643;19;20106;-65
2023/06/03 09:40:05;;;;;;;11.40;3.30;;;;;;;15.46;75.93;101960.50;7356355;19;20006;-65
2023/06/03 09:42:38;;;;;;;11.82;3.53;;;;;;;15.46;76.02;101959.66;7362282;19;20030;-67
2023/06/03 09:45:07;;;;;;;8.40;3.70;;;;;;;15.51;76.24;101960.91;7359624;19;20320;-66
2023/06/03 09:47:36;;;;;;;13.68;3.33;;;;;;;15.59;75.95;101957.47;7354970;19;20035;-66
2023/06/03 09:50:05;;;;;;;12.57;3.85;;;;;;;15.60;75.44;101956.47;7360603;19;20388;-64
2023/06/03 09:52:34;;;;;;;12.82;5.00;;;;;;;15.66;75.22;101954.03;7359389;19;20085;-65
2023/06/03 09:55:04;;;;;;;12.27;3.47;;;;;;;15.74;75.94;101961.19;7359688;19;20014;-67
2023/06/03 09:57:32;;;;;;;11.27;3.60;;;;;;;15.92;74.79;101961.09;7357386;19;20027;-66
2023/06/03 10:00:07;;;;;;;12.90;4.10;;;;;;;16.02;74.34;101957.34;7358136;19;20026;-66
2023/06/03 10:02:38;;;;;;;12.05;3.03;;;;;;;16.13;74.46;101948.25;7357185;19;20098;-67
2023/06/03 10:05:12;;;;;;;10.77;3.58;;;;;;;16.21;73.58;101949.09;7357422;19;20022;-66
2023/06/03 10:07:47;;;;;;;19.42;3.65;;;;;;;16.29;73.41;101956.25;7357416;19;20365;-65
2023/06/03 10:10:14;;;;;;;14.25;3.53;;;;;;;16.32;73.12;101950.63;7357694;19;20153;-65
2023/06/03 10:12:42;;;;;;;15.43;3.83;;;;;;;16.38;73.27;101947.31;7356841;19;20014;-67
2023/06/03 10:15:09;;;;;;;13.35;3.33;;;;;;;16.43;73.65;101945.00;7358217;19;20007;-66
2023/06/03 10:17:45;;;;;;;17.52;4.55;;;;;;;16.61;73.11;101936.91;7354484;19;20014;-69
2023/06/03 10:20:30;;;;;;;17.98;4.22;;;;;;;16.80;73.23;101935.78;7355419;19;20051;-66
2023/06/03 10:22:59;;;;;;;14.13;2.97;;;;;;;16.92;72.11;101940.56;7357422;19;21050;-66
2023/06/03 10:25:30;;;;;;;9.40;3.45;;;;;;;17.09;71.70;101930.78;7355197;19;20018;-66
2023/06/03 10:28:00;;;;;;;13.93;3.95;;;;;;;17.27;70.59;101919.94;7357522;19;20078;-64
2023/06/03 10:30:30;;;;;;;11.13;3.38;;;;;;;17.36;71.05;101925.06;7353221;19;20015;-65
2023/06/03 10:33:03;;;;;;;15.48;3.42;;;;;;;17.49;70.25;101925.38;7353186;19;20662;-65
2023/06/03 10:35:32;;;;;;;10.23;2.22;;;;;;;17.65;70.36;101918.34;7358016;19;21725;-66
2023/06/03 10:38:01;;;;;;;9.88;2.95;;;;;;;17.85;68.53;101924.94;7354681;19;20086;-66
2023/06/03 10:40:29;;;;;;;10.10;2.30;;;;;;;17.94;68.38;101921.22;7354697;19;20049;-66
2023/06/03 10:42:57;;;;;;;12.18;2.60;;;;;;;17.93;68.12;101922.22;7352714;19;20027;-64
2023/06/03 10:45:26;;;;;;;9.68;3.03;;;;;;;17.88;68.75;101911.25;7350815;19;20102;-64
2023/06/03 10:48:00;;;;;;;9.07;2.00;;;;;;;17.91;69.06;101917.09;7350201;19;20024;-66
2023/06/03 10:50:34;;;;;;;11.90;2.40;;;;;;;17.84;68.36;101913.44;7357243;19;20680;-66
2023/06/03 10:53:05;;;;;;;10.55;2.58;;;;;;;17.76;69.33;101915.31;7354846;19;20010;-64
2023/06/03 10:55:33;;;;;;;11.40;2.50;;;;;;;17.65;69.29;101915.69;7356257;19;21019;-66
2023/06/03 10:58:09;;;;;;;10.60;1.98;;;;;;;17.72;69.12;101908.69;7358072;19;20014;-65
2023/06/03 11:00:43;;;;;;;11.48;2.33;;;;;;;17.76;70.06;101904.69;7353742;19;21778;-65
2023/06/03 11:03:15;;;;;;;9.63;3.45;;;;;;;17.87;69.19;101910.47;7354381;19;20057;-65
2023/06/03 11:05:43;;;;;;;8.85;2.33;;;;;;;17.89;69.38;101903.09;7356439;19;20011;-65
2023/06/03 11:08:10;;;;;;;6.35;1.80;;;;;;;17.92;69.46;101896.63;7354767;19;20089;-66
2023/06/03 11:10:39;;;;;;;10.57;2.45;;;;;;;17.97;69.20;101901.41;7356548;19;20746;-64
2023/06/03 11:13:08;;;;;;;11.25;1.92;;;;;;;18.00;69.34;101893.06;7357171;19;20112;-67
2023/06/03 11:15:41;;;;;;;6.35;2.03;;;;;;;18.04;69.41;101903.19;7356338;19;20036;-66
2023/06/03 11:18:13;;;;;;;9.23;2.50;;;;;;;18.08;69.40;101896.50;7347839;19;20016;-66
2023/06/03 11:20:41;;;;;;;7.65;1.73;;;;;;;18.18;69.09;101899.81;7338437;19;20010;-65
2023/06/03 11:23:08;;;;;;;6.53;1.58;;;;;;;18.29;68.73;101888.72;7348338;19;20022;-65
2023/06/03 11:25:38;;;;;;;9.48;1.88;;;;;;;18.41;68.06;101888.31;7341934;19;20014;-66